Time;durP1;ratioP1;P1;durP2;ratioP2;P2;SDS_P1;SDS_P2;PMS_P1;PMS_P2;Temp;Humidity;BMP_temperature;BMP_pressure;BME280_temperature;BME280_humidity;BME280_pressure;Samples;Min_cycle;Max_cycle;Signal;HPM_P1;HPM_P2
2023/03/02 00:02:21;;;;;;;25.47;17.67;;;1.70;69.40;;;0.74;66.24;98143.28;5095080;28;20482;-72
2023/03/02 00:04:52;;;;;;;25.90;18.00;;;1.70;69.70;;;1.30;66.34;98229.22;5094107;28;21246;-71
2023/03/02 00:07:23;;;;;;;27.30;19.40;;;1.70;69.80;;;1.21;66.96;98224.78;5096540;28;20993;-73
2023/03/02 00:09:50;;;;;;;27.43;17.10;;;1.60;70.20;;;1.29;66.61;98219.56;5094862;27;20460;-72
2023/03/02 00:12:18;;;;;;;26.57;17.27;;;1.60;70.40;;;1.19;66.97;98216.13;5081265;28;20469;-72
2023/03/02 00:14:45;;;;;;;27.23;17.70;;;1.60;70.50;;;1.24;67.04;98204.03;5081523;28;20494;-72
2023/03/02 00:17:12;;;;;;;25.73;16.47;;;1.70;70.70;;;1.36;66.60;98220.63;5086916;28;21011;-74
2023/03/02 00:19:41;;;;;;;29.13;16.43;;;1.70;70.70;;;1.35;66.81;98216.28;5088059;28;20450;-72
2023/03/02 00:22:08;;;;;;;23.67;16.10;;;1.70;70.90;;;1.37;67.07;98214.31;5080608;28;20525;-73
2023/03/02 00:24:35;;;;;;;26.63;16.90;;;1.70;71.00;;;1.38;67.06;98215.16;5124618;27;20459;-71
2023/03/02 00:27:02;;;;;;;23.87;16.17;;;1.70;71.00;;;1.22;67.70;98210.50;5099518;27;20491;-73
2023/03/02 00:29:30;;;;;;;30.20;17.90;;;1.70;71.40;;;1.34;67.04;98208.44;5068373;28;20460;-72
2023/03/02 00:31:57;;;;;;;26.33;16.97;;;1.60;71.30;;;1.33;67.28;98207.63;5087944;28;20451;-71
2023/03/02 00:34:25;;;;;;;24.33;17.83;;;1.70;71.60;;;1.29;67.56;98206.25;5106878;28;20464;-73
2023/03/02 00:36:54;;;;;;;25.17;17.33;;;1.60;71.80;;;1.29;67.67;98206.25;5098711;28;20441;-70
2023/03/02 00:39:21;;;;;;;22.80;16.63;;;1.70;71.70;;;1.28;67.71;98199.22;5112700;28;20461;-71
2023/03/02 00:41:48;;;;;;;30.10;17.70;;;1.60;71.70;;;1.27;68.00;98202.88;5091600;28;20481;-71
2023/03/02 00:44:17;;;;;;;26.07;16.60;;;1.60;71.90;;;1.30;68.10;98201.75;5088023;28;21070;-71
2023/03/02 00:46:44;;;;;;;23.70;16.03;;;1.60;72.30;;;1.35;67.92;98199.47;5104913;28;20857;-70
2023/03/02 00:49:12;;;;;;;25.40;16.27;;;1.60;72.30;;;1.34;67.72;98192.47;5097111;28;20459;-72
2023/03/02 00:51:42;;;;;;;26.30;16.30;;;1.70;72.30;;;1.31;67.84;98192.78;5094378;28;20435;-73
2023/03/02 00:54:11;;;;;;;25.90;16.90;;;1.60;72.40;;;1.28;67.94;98188.59;5106746;28;20454;-72
2023/03/02 00:56:38;;;;;;;24.70;16.57;;;1.60;72.70;;;1.28;68.13;98183.25;5091367;28;20441;-73
2023/03/02 00:59:09;;;;;;;26.80;16.00;;;1.60;72.90;;;1.33;68.19;98190.81;5118742;27;20455;-71
2023/03/02 01:01:37;;;;;;;29.03;16.20;;;1.60;73.00;;;1.27;68.46;98181.59;5080938;28;20948;-71
2023/03/02 01:04:05;;;;;;;23.20;15.80;;;1.60;73.50;;;1.29;68.56;98182.31;5083635;28;20448;-69
2023/03/02 01:06:32;;;;;;;28.40;16.00;;;1.60;73.20;;;1.33;68.13;98175.69;5097124;28;20561;-72
2023/03/02 01:08:59;;;;;;;25.33;16.20;;;1.70;73.20;;;1.30;68.62;98172.47;5089918;28;21009;-72
2023/03/02 01:11:28;;;;;;;26.43;16.40;;;1.70;73.30;;;1.32;68.54;98163.34;5083958;28;20471;-74
2023/03/02 01:13:55;;;;;;;24.13;16.77;;;1.70;73.40;;;1.30;68.72;98153.84;5071649;28;20506;-72
2023/03/02 01:16:22;;;;;;;23.67;16.20;;;1.70;73.20;;;1.30;68.65;98159.16;5107765;28;20482;-73
2023/03/02 01:18:50;;;;;;;26.77;17.03;;;1.70;73.50;;;1.34;68.63;98155.19;5080296;28;20471;-74
2023/03/02 01:21:17;;;;;;;26.30;15.60;;;1.70;73.40;;;1.37;68.73;98153.06;5087582;28;20470;-75
2023/03/02 01:23:44;;;;;;;28.07;18.37;;;1.70;73.30;;;1.35;68.36;98141.75;5076221;28;20455;-75
2023/03/02 01:26:12;;;;;;;27.27;16.90;;;1.70;73.50;;;1.27;68.94;98145.16;5100090;28;20459;-72
2023/03/02 01:28:40;;;;;;;24.03;15.27;;;1.60;73.50;;;1.26;69.05;98143.50;5084593;28;20455;-73
2023/03/02 01:31:08;;;;;;;23.03;16.83;;;1.60;73.60;;;1.23;68.37;98129.66;5080871;28;20460;-72
2023/03/02 01:33:35;;;;;;;24.70;16.43;;;1.60;73.70;;;1.29;68.96;98134.38;5087758;28;20461;-73
2023/03/02 01:36:02;;;;;;;24.93;16.17;;;1.70;73.70;;;1.22;69.25;98122.66;5101188;28;20455;-71
2023/03/02 01:38:29;;;;;;;24.80;16.10;;;1.70;73.80;;;1.16;69.43;98112.63;5086609;28;20448;-71
2023/03/02 01:40:57;;;;;;;29.33;15.50;;;1.70;73.80;;;1.27;68.68;98120.38;5103156;27;20456;-72
2023/03/02 01:43:24;;;;;;;25.93;16.40;;;1.70;73.70;;;1.22;69.04;98117.34;5082798;28;20464;-71
2023/03/02 01:45:55;;;;;;;23.77;16.80;;;1.70;73.70;;;1.30;68.74;98121.88;5100990;28;20444;-72
2023/03/02 01:48:28;;;;;;;25.13;16.83;;;1.70;73.60;;;1.29;68.91;98121.06;5089415;28;20483;-72
2023/03/02 01:50:57;;;;;;;29.40;16.70;;;1.70;73.60;;;1.23;68.91;98132.31;5086735;28;20462;-72
2023/03/02 01:53:28;;;;;;;27.20;17.40;;;1.80;73.50;;;1.23;69.03;98113.69;5080904;28;20463;-72
2023/03/02 01:55:56;;;;;;;24.80;15.10;;;1.80;73.50;;;1.23;68.92;98113.69;5094102;28;21267;-71
2023/03/02 01:58:24;;;;;;;24.63;15.80;;;1.80;73.40;;;1.34;68.63;98124.09;5089099;28;20452;-71
2023/03/02 02:00:54;;;;;;;24.60;15.70;;;1.80;73.40;;;1.31;68.77;98124.41;5084157;28;20943;-71
2023/03/02 02:03:27;;;;;;;25.37;15.73;;;1.80;73.40;;;1.34;68.47;98118.78;5102296;28;20458;-74
2023/03/02 02:06:06;;;;;;;26.33;16.50;;;1.80;73.40;;;1.35;68.55;98117.78;5081258;28;20517;-72
2023/03/02 02:08:34;;;;;;;27.03;15.77;;;1.70;73.40;;;1.29;68.78;98110.41;5085168;28;20460;-71
2023/03/02 02:11:01;;;;;;;25.83;16.10;;;1.70;73.40;;;1.39;68.49;98110.31;5077241;28;21201;-73
2023/03/02 02:13:28;;;;;;;24.90;15.70;;;1.70;73.30;;;1.31;68.49;98116.41;5086164;28;20537;-71
2023/03/02 02:15:57;;;;;;;26.40;17.23;;;1.70;73.40;;;1.32;68.38;98111.91;5087108;28;20486;-76
2023/03/02 02:18:25;;;;;;;26.03;16.50;;;1.70;73.50;;;1.25;68.71;98115.22;5079526;28;20467;-73
2023/03/02 02:20:55;;;;;;;27.53;16.47;;;1.70;73.60;;;1.28;68.52;98108.72;5119897;27;21008;-74
2023/03/02 02:23:28;;;;;;;24.80;16.47;;;1.70;73.50;;;1.33;68.54;98101.13;5102554;28;20451;-71
2023/03/02 02:26:17;;;;;;;28.50;17.00;;;1.70;73.40;;;0.85;68.38;98028.69;5099694;28;20452;-73
2023/03/02 02:28:56;;;;;;;23.17;14.83;;;1.70;73.30;;;1.31;68.37;98102.25;5089870;28;20543;-74
2023/03/02 02:31:32;;;;;;;24.93;16.20;;;1.70;73.30;;;1.30;68.39;98101.44;5114619;27;20449;-74
2023/03/02 02:34:08;;;;;;;26.73;17.10;;;1.70;73.20;;;1.31;68.33;98099.59;5104822;28;20450;-73
2023/03/02 02:36:47;;;;;;;28.03;16.30;;;1.70;73.30;;;1.26;68.46;98089.41;5126462;27;20470;-72
2023/03/02 02:39:20;;;;;;;24.60;15.97;;;1.80;73.30;;;1.35;67.86;98083.16;5091211;28;20457;-71
2023/03/02 02:41:53;;;;;;;26.43;17.17;;;1.70;73.10;;;1.33;68.50;98100.28;5090949;28;20461;-73
2023/03/02 02:44:20;;;;;;;24.13;16.67;;;1.80;73.30;;;1.02;68.44;98066.09;5095044;28;21283;-73
2023/03/02 02:46:48;;;;;;;23.30;16.53;;;1.70;73.10;;;1.34;68.05;98097.47;5089756;28;20955;-75
2023/03/02 02:49:29;;;;;;;24.90;16.40;;;1.70;73.10;;;1.30;68.32;98096.13;5086503;28;20446;-73
2023/03/02 02:51:57;;;;;;;26.63;15.90;;;1.70;73.20;;;1.19;68.78;98094.50;5096315;27;20460;-71
2023/03/02 02:54:24;;;;;;;27.37;16.70;;;1.70;73.30;;;1.23;68.42;98093.22;5094380;28;20507;-74
2023/03/02 02:56:54;;;;;;;26.33;16.20;;;1.70;73.30;;;1.24;68.75;98091.38;5082515;28;20448;-72
2023/03/02 02:59:25;;;;;;;27.27;17.20;;;1.70;73.20;;;1.31;68.51;98087.13;5094243;28;20803;-73
2023/03/02 03:01:52;;;;;;;25.87;16.50;;;1.70;73.30;;;1.21;68.13;98075.75;5086663;28;20460;-71
2023/03/02 03:04:24;;;;;;;25.20;16.80;;;1.70;73.30;;;0.83;68.31;98020.91;5109143;27;20510;-73
2023/03/02 03:06:54;;;;;;;24.47;16.17;;;1.70;73.20;;;1.16;68.53;98078.03;5118155;27;20467;-72
2023/03/02 03:09:21;;;;;;;24.87;17.00;;;1.70;73.20;;;1.20;68.53;98092.69;5098471;27;20477;-73
2023/03/02 03:11:53;;;;;;;23.20;15.67;;;1.70;73.20;;;1.22;68.57;98088.06;5090767;28;20451;-73
2023/03/02 03:14:26;;;;;;;27.60;17.30;;;1.70;73.20;;;1.34;67.96;98094.81;5083369;28;20464;-73
2023/03/02 03:16:54;;;;;;;27.77;18.13;;;1.70;73.20;;;1.23;68.25;98090.56;5084676;28;20805;-70
2023/03/02 03:19:24;;;;;;;27.50;17.40;;;1.70;73.10;;;1.26;68.42;98090.25;5086708;28;20518;-71
2023/03/02 03:21:54;;;;;;;27.13;17.30;;;1.70;73.10;;;1.21;68.40;98092.53;5090447;28;20577;-71
2023/03/02 03:24:22;;;;;;;24.70;16.87;;;1.70;73.20;;;1.12;68.42;98088.97;5101432;28;20446;-70
2023/03/02 03:26:50;;;;;;;26.83;16.27;;;1.70;73.10;;;1.25;68.39;98093.06;5116702;27;20445;-70
2023/03/02 03:29:23;;;;;;;25.70;16.10;;;1.70;73.20;;;1.17;68.08;98079.69;5111270;28;20439;-72
2023/03/02 03:31:50;;;;;;;27.37;16.67;;;1.70;73.10;;;1.26;68.27;98094.72;5101125;28;20449;-72
2023/03/02 03:34:18;;;;;;;27.73;18.37;;;1.70;73.00;;;1.26;68.10;98090.25;5111671;28;20505;-72
2023/03/02 03:36:46;;;;;;;27.20;17.93;;;1.70;73.00;;;1.25;68.21;98096.56;5108891;27;20456;-72
2023/03/02 03:39:15;;;;;;;27.53;16.53;;;1.70;72.90;;;1.24;68.31;98099.38;5089163;28;20491;-73
2023/03/02 03:41:43;;;;;;;24.53;15.73;;;1.70;72.90;;;1.33;67.86;98090.47;5106391;28;20442;-71
2023/03/02 03:44:11;;;;;;;23.17;16.53;;;1.80;72.90;;;1.18;67.86;98057.41;5090244;28;20440;-71
2023/03/02 03:46:40;;;;;;;32.20;19.17;;;1.80;73.00;;;1.22;68.36;98094.22;5103310;28;20489;-71
2023/03/02 03:49:07;;;;;;;28.57;18.33;;;1.70;73.00;;;1.24;68.23;98091.38;5128986;27;20436;-72
2023/03/02 03:51:35;;;;;;;27.00;17.67;;;1.70;73.00;;;1.11;68.32;98076.66;5121405;28;20483;-71
2023/03/02 03:54:04;;;;;;;28.30;17.90;;;1.70;73.00;;;1.15;68.07;98071.03;5103129;28;20451;-72
2023/03/02 03:56:37;;;;;;;28.97;18.10;;;1.70;73.00;;;1.29;68.07;98091.78;5108366;28;20452;-72
2023/03/02 03:59:07;;;;;;;22.60;16.57;;;1.70;73.10;;;1.21;68.51;98089.03;5079178;28;20452;-73
2023/03/02 04:01:36;;;;;;;24.10;16.90;;;1.60;73.20;;;1.13;68.60;98089.81;5079581;28;20439;-73
2023/03/02 04:04:09;;;;;;;29.20;16.27;;;1.60;73.20;;;1.14;68.72;98083.50;5079881;28;20533;-70
2023/03/02 04:06:37;;;;;;;29.27;17.57;;;1.60;73.20;;;1.16;68.89;98086.00;5085009;28;20471;-73
2023/03/02 04:09:05;;;;;;;25.70;18.17;;;1.60;73.60;;;1.21;68.12;98086.38;5098374;28;20703;-71
2023/03/02 04:11:33;;;;;;;26.97;17.20;;;1.60;73.20;;;1.17;68.87;98082.38;5088723;28;20512;-75
2023/03/02 04:14:00;;;;;;;29.07;18.30;;;1.60;73.30;;;1.12;68.99;98083.63;5109878;27;20455;-73
2023/03/02 04:16:29;;;;;;;27.20;17.77;;;1.60;73.80;;;1.13;68.83;98081.81;5077898;28;20452;-73
2023/03/02 04:18:57;;;;;;;26.77;17.40;;;1.50;73.50;;;1.12;68.97;98086.31;5100438;28;20460;-73
2023/03/02 04:21:26;;;;;;;30.10;18.80;;;1.50;73.70;;;1.04;68.88;98070.28;5086657;28;20448;-72
2023/03/02 04:23:54;;;;;;;25.53;16.70;;;1.50;73.70;;;0.98;69.26;98071.72;5093207;28;20468;-74
2023/03/02 04:26:21;;;;;;;26.27;17.20;;;1.40;73.70;;;1.09;69.21;98073.31;5090606;28;20479;-72
2023/03/02 04:28:50;;;;;;;29.80;17.63;;;1.40;74.10;;;1.18;68.99;98076.88;5086673;28;20486;-73
2023/03/02 04:31:18;;;;;;;33.03;17.93;;;1.50;73.90;;;1.14;69.25;98067.53;5105551;27;20454;-74
2023/03/02 04:33:45;;;;;;;28.70;17.13;;;1.60;74.20;;;1.18;68.88;98065.41;5100717;28;20452;-71
2023/03/02 04:36:13;;;;;;;28.50;18.20;;;1.70;73.70;;;1.32;68.37;98077.31;5087149;28;20447;-73
2023/03/02 04:38:41;;;;;;;30.07;18.50;;;1.70;73.60;;;0.70;68.63;97993.84;5112354;27;20458;-72
2023/03/02 04:41:08;;;;;;;28.50;18.23;;;1.60;73.60;;;1.19;68.63;98077.72;5107331;28;20487;-74
2023/03/02 04:43:35;;;;;;;25.53;17.57;;;1.60;73.80;;;1.26;68.69;98073.44;5084826;28;20455;-73
2023/03/02 04:46:03;;;;;;;28.83;18.80;;;1.60;73.70;;;1.17;68.87;98074.38;5086565;28;20443;-72
2023/03/02 04:48:31;;;;;;;27.00;18.67;;;1.60;73.60;;;0.75;68.89;97996.88;5097159;28;20529;-73
2023/03/02 04:50:58;;;;;;;29.93;18.43;;;1.60;73.60;;;1.18;68.91;98070.72;5087004;28;20505;-72
2023/03/02 04:53:25;;;;;;;26.33;16.97;;;1.70;73.60;;;1.23;68.67;98065.75;5088970;28;20517;-72
2023/03/02 04:55:54;;;;;;;25.17;16.73;;;1.70;73.60;;;1.26;68.73;98068.13;5089941;28;20447;-72
2023/03/02 04:58:21;;;;;;;27.53;18.53;;;1.60;73.60;;;1.25;68.32;98066.44;5097090;28;20455;-72
2023/03/02 05:00:48;;;;;;;29.87;17.30;;;1.70;73.50;;;1.24;68.85;98064.78;5103399;28;20441;-72
2023/03/02 05:03:15;;;;;;;25.77;17.27;;;1.70;73.70;;;1.27;68.55;98070.63;5096926;28;20545;-72
2023/03/02 05:05:43;;;;;;;28.77;17.30;;;1.70;73.60;;;1.11;69.03;98066.00;5093593;28;20477;-73
2023/03/02 05:08:10;;;;;;;28.30;17.40;;;1.60;73.70;;;1.24;68.76;98070.09;5098476;28;20475;-73
2023/03/02 05:10:37;;;;;;;26.60;17.17;;;1.60;73.80;;;1.13;68.94;98061.34;5097456;28;20452;-72
2023/03/02 05:13:06;;;;;;;27.57;17.73;;;1.60;73.70;;;1.23;68.73;98057.78;5086156;28;20554;-71
2023/03/02 05:15:36;;;;;;;27.93;17.63;;;1.60;73.70;;;0.98;69.10;98044.25;5085844;28;20456;-70
2023/03/02 05:18:05;;;;;;;24.90;17.10;;;1.60;74.00;;;1.15;69.30;98058.56;5085478;28;20529;-71
2023/03/02 05:20:34;;;;;;;33.23;18.60;;;1.60;73.80;;;1.04;69.54;98053.47;5102450;28;20752;-73
2023/03/02 05:23:06;;;;;;;29.80;18.17;;;1.60;74.00;;;1.16;69.01;98068.22;5088175;28;20525;-72
2023/03/02 05:25:36;;;;;;;25.70;15.80;;;1.60;74.00;;;1.19;69.52;98067.06;5123846;27;20997;-70
2023/03/02 05:28:05;;;;;;;30.60;17.70;;;1.60;73.90;;;1.30;68.99;98065.97;5092656;28;20463;-73
2023/03/02 05:30:36;;;;;;;25.80;16.53;;;1.70;74.20;;;1.14;68.68;98054.22;5091989;28;20456;-71
2023/03/02 05:33:04;;;;;;;29.70;17.57;;;1.60;74.20;;;1.10;69.00;98051.03;5092534;28;21027;-74
2023/03/02 05:35:31;;;;;;;28.70;17.67;;;1.70;73.90;;;1.25;68.93;98071.75;5100492;28;20509;-71
2023/03/02 05:37:58;;;;;;;27.57;18.20;;;1.70;73.90;;;1.19;69.29;98069.72;5099595;28;20449;-71
2023/03/02 05:40:26;;;;;;;26.30;17.33;;;1.60;73.90;;;1.16;69.42;98072.72;5085326;28;20459;-72
2023/03/02 05:42:53;;;;;;;29.97;18.20;;;1.60;74.20;;;1.21;69.37;98070.41;5091724;28;20501;-73
2023/03/02 05:45:26;;;;;;;24.90;16.70;;;1.60;74.00;;;1.23;68.99;98073.75;5104641;28;20939;-73
2023/03/02 05:47:54;;;;;;;25.97;16.97;;;1.60;74.00;;;1.09;69.60;98062.66;5086852;28;20872;-71
2023/03/02 05:50:21;;;;;;;26.20;17.93;;;1.60;74.10;;;1.18;69.45;98076.06;5103832;28;20651;-76
2023/03/02 05:52:50;;;;;;;25.23;16.57;;;1.50;74.20;;;1.13;69.36;98069.34;5087438;28;20532;-70
2023/03/02 05:55:18;;;;;;;27.83;17.77;;;1.60;74.70;;;1.06;70.05;98089.59;5116295;27;20512;-72
2023/03/02 05:57:48;;;;;;;26.03;16.17;;;1.50;74.50;;;1.26;69.28;98089.41;5100378;28;20448;-75
2023/03/02 06:00:17;;;;;;;31.37;18.07;;;1.60;74.30;;;1.21;69.17;98087.19;5085155;28;20936;-71
2023/03/02 06:02:46;;;;;;;26.43;16.60;;;1.60;74.30;;;0.75;69.12;97999.53;5074737;28;20514;-73
2023/03/02 06:05:17;;;;;;;24.53;15.63;;;1.70;74.30;;;1.29;69.50;98088.28;5089698;28;20954;-73
2023/03/02 06:07:45;;;;;;;27.47;17.70;;;1.70;74.30;;;1.44;68.88;98091.19;5095254;28;20463;-71
2023/03/02 06:10:13;;;;;;;25.73;16.20;;;1.70;74.10;;;1.40;68.89;98096.84;5074956;28;20955;-70
2023/03/02 06:12:41;;;;;;;27.10;17.17;;;1.70;74.20;;;1.33;69.28;98098.47;5079075;28;20944;-72
2023/03/02 06:15:10;;;;;;;27.57;17.00;;;1.70;74.30;;;1.42;68.81;98097.53;5083376;28;20479;-70
2023/03/02 06:17:37;;;;;;;27.43;16.57;;;1.70;74.30;;;1.39;68.91;98103.16;5120758;27;20549;-69
2023/03/02 06:20:09;;;;;;;26.00;16.63;;;1.80;74.20;;;1.41;69.11;98105.69;5090929;28;20447;-70
2023/03/02 06:22:39;;;;;;;27.87;16.87;;;1.80;74.20;;;1.45;68.38;98090.25;5101160;28;20448;-69
2023/03/02 06:25:10;;;;;;;25.07;17.00;;;1.80;74.20;;;1.61;68.87;98098.34;5093645;28;20455;-69
2023/03/02 06:27:38;;;;;;;29.73;17.53;;;1.90;74.70;;;1.55;68.27;98093.63;5095082;28;20520;-69
2023/03/02 06:30:08;;;;;;;28.87;16.23;;;1.90;74.20;;;1.51;68.49;98105.59;5100992;28;20994;-70
2023/03/02 06:32:35;;;;;;;25.60;16.87;;;1.90;74.10;;;1.47;68.50;98082.94;5088319;28;20533;-70
2023/03/02 06:35:03;;;;;;;24.93;16.70;;;2.00;74.10;;;1.65;68.28;98105.03;5102196;28;20922;-69
2023/03/02 06:37:32;;;;;;;28.70;16.50;;;2.00;74.00;;;1.69;68.03;98114.38;5080572;28;20459;-71
2023/03/02 06:40:00;;;;;;;27.63;17.40;;;2.00;74.00;;;1.70;67.57;98102.72;5099232;28;20515;-69
2023/03/02 06:42:28;;;;;;;25.30;17.30;;;2.00;73.80;;;1.68;67.82;98083.38;5095569;28;20454;-70
2023/03/02 06:44:56;;;;;;;25.27;16.47;;;2.00;73.90;;;1.84;67.63;98108.47;5111429;27;20460;-71
2023/03/02 06:47:23;;;;;;;26.13;15.70;;;2.10;73.70;;;1.90;67.53;98110.50;5078715;28;20454;-71
2023/03/02 06:49:51;;;;;;;28.73;18.43;;;2.20;73.60;;;1.84;67.58;98103.97;5086261;28;20591;-70
2023/03/02 06:52:18;;;;;;;26.17;16.00;;;2.30;73.60;;;1.79;67.46;98106.25;5089260;28;20461;-69
2023/03/02 06:54:47;;;;;;;26.73;15.93;;;2.30;73.20;;;1.93;66.98;98112.84;5077845;28;21141;-68
2023/03/02 06:57:14;;;;;;;25.40;15.00;;;2.30;73.10;;;2.14;69.08;98106.28;5094884;28;20547;-68
2023/03/02 06:59:46;;;;;;;21.57;15.70;;;2.50;75.10;;;2.16;66.35;98098.97;5079712;28;20440;-72
2023/03/02 07:02:14;;;;;;;26.20;17.47;;;2.50;73.00;;;2.12;66.24;98105.63;5119305;27;20448;-68
2023/03/02 07:04:41;;;;;;;27.73;17.80;;;2.50;72.60;;;2.15;66.19;98105.28;5115312;27;20458;-71
2023/03/02 07:07:08;;;;;;;25.87;17.17;;;2.60;72.60;;;1.96;66.38;98037.91;5093932;28;20456;-70
2023/03/02 07:09:36;;;;;;;33.50;18.20;;;2.70;73.00;;;2.36;65.83;98102.22;5083274;28;20481;-69
2023/03/02 07:12:05;;;;;;;23.20;15.83;;;2.70;72.10;;;2.40;65.49;98102.75;5076115;28;20449;-69
2023/03/02 07:14:35;;;;;;;28.67;16.13;;;2.80;71.80;;;2.46;65.21;98107.41;5093591;28;20459;-68
2023/03/02 07:17:05;;;;;;;28.20;16.50;;;2.90;71.70;;;2.55;64.61;98106.47;5081224;28;20492;-69
2023/03/02 07:19:32;;;;;;;24.93;16.70;;;3.00;71.50;;;2.43;64.91;98090.91;5106032;27;20928;-73
2023/03/02 07:21:59;;;;;;;22.10;16.20;;;3.00;71.30;;;2.66;64.63;98109.84;5084305;28;20920;-70
2023/03/02 07:24:27;;;;;;;28.33;17.37;;;3.00;71.10;;;2.65;64.07;98090.31;5082715;28;20806;-69
2023/03/02 07:26:54;;;;;;;29.40;17.70;;;3.10;71.00;;;2.80;63.87;98103.03;5077996;28;20494;-69
2023/03/02 07:29:23;;;;;;;26.77;16.60;;;3.20;70.80;;;2.74;63.86;98093.84;5101445;27;20472;-71
2023/03/02 07:31:55;;;;;;;26.97;18.67;;;3.20;70.50;;;2.69;63.84;98075.63;5081770;28;21340;-68
2023/03/02 07:34:23;;;;;;;23.23;16.50;;;3.30;70.50;;;3.00;63.64;98103.56;5083524;28;20457;-70
2023/03/02 07:36:52;;;;;;;27.73;16.60;;;3.30;70.40;;;2.88;63.58;98083.53;5088098;28;20453;-69
2023/03/02 07:39:19;;;;;;;24.80;17.77;;;3.40;70.00;;;3.02;62.49;98098.03;5090591;28;20456;-69
2023/03/02 07:41:47;;;;;;;33.27;19.27;;;3.40;69.80;;;3.00;63.04;98100.03;5100780;28;20466;-70
2023/03/02 07:44:14;;;;;;;23.93;17.23;;;3.50;69.80;;;3.20;62.62;98093.41;5093133;28;20456;-70
2023/03/02 07:46:42;;;;;;;27.30;17.90;;;3.50;69.70;;;3.35;62.37;98090.06;5106601;27;20840;-69
2023/03/02 07:49:10;;;;;;;26.07;16.93;;;3.70;69.60;;;3.36;61.79;98097.09;5094904;28;20471;-69
2023/03/02 07:51:37;;;;;;;26.23;16.40;;;3.70;69.40;;;3.43;61.43;98094.59;5080093;28;20460;-72
2023/03/02 07:54:04;;;;;;;26.23;17.63;;;3.90;69.20;;;3.37;61.90;98091.56;5081297;28;20457;-70
2023/03/02 07:56:32;;;;;;;28.27;16.67;;;3.90;68.90;;;3.50;61.33;98098.22;5100428;28;20447;-70
2023/03/02 07:58:59;;;;;;;30.10;18.70;;;3.90;68.90;;;3.62;61.15;98101.38;5096108;27;20860;-70
2023/03/02 08:01:27;;;;;;;32.17;20.03;;;4.00;68.60;;;3.50;61.13;98092.88;5075624;28;20464;-68
2023/03/02 08:03:55;;;;;;;28.07;18.10;;;4.00;68.40;;;3.58;61.69;98092.91;5077664;28;20556;-69
2023/03/02 08:06:23;;;;;;;26.27;17.20;;;4.10;68.40;;;3.76;60.71;98091.88;5087486;28;21019;-68
2023/03/02 08:08:50;;;;;;;30.17;18.20;;;4.10;68.20;;;3.80;61.17;98101.19;5083430;28;20491;-68
2023/03/02 08:11:18;;;;;;;26.57;18.50;;;4.20;68.00;;;3.77;61.44;98104.22;5090180;28;20484;-69
2023/03/02 08:13:46;;;;;;;27.63;17.63;;;4.30;68.00;;;3.79;60.75;98107.56;5076402;28;20452;-69
2023/03/02 08:16:15;;;;;;;29.23;18.13;;;4.30;67.60;;;3.60;60.83;98048.13;5082625;28;20894;-68
2023/03/02 08:18:43;;;;;;;27.90;17.17;;;4.40;67.60;;;3.96;60.03;98109.19;5080918;28;20486;-69
2023/03/02 08:21:18;;;;;;;25.73;17.73;;;4.40;67.30;;;4.04;60.65;98107.50;5095815;27;20457;-68
2023/03/02 08:23:47;;;;;;;22.40;15.83;;;4.50;67.30;;;4.33;59.81;98108.75;5118800;27;20517;-69
2023/03/02 08:26:18;;;;;;;27.03;17.17;;;4.60;67.00;;;4.49;58.76;98111.38;5111281;27;20450;-69
2023/03/02 08:28:47;;;;;;;26.47;17.60;;;4.80;66.70;;;4.51;58.27;98109.34;5086138;28;20476;-68
2023/03/02 08:31:14;;;;;;;24.20;16.17;;;4.90;66.30;;;4.42;58.83;98107.69;5084170;28;20455;-69
2023/03/02 08:33:44;;;;;;;21.40;15.37;;;4.90;66.10;;;4.36;58.42;98111.09;5079480;28;20472;-70
2023/03/02 08:36:16;;;;;;;27.73;17.67;;;4.90;65.70;;;4.38;58.59;98103.72;5102655;27;20450;-69
2023/03/02 08:38:44;;;;;;;31.37;18.90;;;4.90;65.80;;;4.59;59.14;98100.44;5089061;28;20431;-69
2023/03/02 08:41:15;;;;;;;24.47;16.17;;;5.00;65.80;;;4.70;58.09;98106.41;5086310;28;20457;-69
2023/03/02 08:43:42;;;;;;;29.87;17.73;;;5.10;65.60;;;4.49;58.35;98108.69;5088443;28;20954;-69
2023/03/02 08:46:13;;;;;;;30.37;19.73;;;5.10;65.10;;;4.56;59.07;98092.78;5100870;27;20479;-69
2023/03/02 08:48:40;;;;;;;28.83;16.90;;;5.00;65.20;;;4.89;58.36;98084.56;5074394;28;20468;-69
2023/03/02 08:51:10;;;;;;;26.90;17.60;;;5.20;65.20;;;5.05;58.00;98091.63;5076823;28;20547;-70
2023/03/02 08:53:43;;;;;;;22.20;15.13;;;5.40;64.90;;;5.28;57.05;98090.81;5108124;27;20457;-70
2023/03/02 08:56:19;;;;;;;26.47;16.60;;;5.50;64.80;;;5.11;57.32;98090.09;5088513;28;20463;-70
2023/03/02 08:58:46;;;;;;;30.33;18.10;;;5.50;64.20;;;5.28;56.72;98087.28;5104462;27;20457;-70
2023/03/02 09:01:15;;;;;;;31.93;18.47;;;5.60;63.80;;;5.27;56.91;98094.50;5087813;28;20463;-72
2023/03/02 09:03:42;;;;;;;28.50;17.97;;;5.60;63.80;;;5.28;56.38;98089.97;5096102;28;20999;-71
2023/03/02 09:06:10;;;;;;;23.17;16.43;;;5.70;63.60;;;5.31;56.56;98078.91;5088289;28;20458;-69
2023/03/02 09:08:39;;;;;;;24.20;16.80;;;5.70;63.30;;;5.23;56.15;98085.13;5083070;28;20449;-69
2023/03/02 09:11:06;;;;;;;29.63;17.90;;;5.70;63.00;;;5.34;57.07;98079.34;5127389;27;20458;-69
2023/03/02 09:13:34;;;;;;;28.03;18.40;;;5.70;63.30;;;5.56;56.23;98082.19;5096249;28;20451;-69
2023/03/02 09:16:02;;;;;;;25.27;16.87;;;5.80;63.30;;;5.60;55.75;98075.44;5114856;28;20456;-69
2023/03/02 09:18:29;;;;;;;25.97;17.70;;;5.90;62.70;;;5.76;55.05;98087.03;5093376;28;20506;-71
2023/03/02 09:20:57;;;;;;;27.10;17.87;;;6.00;62.50;;;5.78;55.49;98087.69;5080348;28;20498;-70
2023/03/02 09:23:26;;;;;;;24.50;17.47;;;6.10;62.10;;;5.67;56.04;98089.78;5100738;28;20492;-70
2023/03/02 09:25:55;;;;;;;29.17;18.60;;;6.10;62.10;;;5.70;55.60;98098.50;5085500;28;21028;-67
2023/03/02 09:28:24;;;;;;;23.13;16.60;;;6.10;61.90;;;5.84;55.39;98078.91;5100838;28;20445;-71
2023/03/02 09:30:53;;;;;;;25.93;17.30;;;6.20;61.70;;;5.81;55.31;98095.34;5101961;27;20596;-70
2023/03/02 09:33:21;;;;;;;24.13;16.67;;;6.20;61.40;;;5.74;55.58;98081.03;5106508;28;20949;-68
2023/03/02 09:35:49;;;;;;;29.27;18.67;;;6.20;61.40;;;5.80;55.29;98059.69;5079679;28;20502;-69
2023/03/02 09:38:18;;;;;;;32.10;18.77;;;6.30;61.30;;;5.86;55.13;98074.19;5101223;27;20525;-69
2023/03/02 09:41:07;;;;;;;27.42;19.52;;;6.30;61.20;;;6.17;54.75;98086.63;5088359;28;20480;-68
2023/03/02 09:43:48;;;;;;;24.67;18.70;;;6.50;61.00;;;6.05;54.71;98085.44;5085672;28;20200;-68
2023/03/02 09:46:20;;;;;;;24.80;16.53;;;6.50;60.50;;;6.08;54.64;98063.59;5080001;28;20457;-70
2023/03/02 09:49:07;;;;;;;24.50;16.40;;;6.50;60.70;;;6.62;53.66;98075.03;5088001;28;20453;-68
2023/03/02 09:51:43;;;;;;;26.40;16.63;;;6.70;60.70;;;6.63;53.49;98072.13;5098008;27;20457;-68
2023/03/02 09:54:14;;;;;;;27.23;15.50;;;6.90;60.10;;;6.76;53.06;98082.22;5077953;28;20452;-68
2023/03/02 09:56:47;;;;;;;24.23;15.90;;;7.10;60.00;;;6.88;52.90;98062.88;5101611;28;20456;-71
2023/03/02 09:59:24;;;;;;;23.57;16.20;;;7.10;59.50;;;6.94;52.56;98054.91;5092771;28;20521;-70
2023/03/02 10:02:00;;;;;;;22.30;15.67;;;7.20;59.40;;;7.11;52.20;98068.09;5090868;28;20447;-70
2023/03/02 10:04:30;;;;;;;26.80;16.50;;;7.30;59.20;;;7.14;52.61;98056.13;5078180;28;20527;-68
2023/03/02 10:07:03;;;;;;;26.27;16.43;;;7.40;59.00;;;7.21;52.13;98067.78;5088020;27;20815;-69
2023/03/02 10:09:31;;;;;;;24.20;17.63;;;7.40;58.70;;;7.24;52.10;98067.41;5075930;28;20478;-70
2023/03/02 10:12:37;;;;;;;23.07;15.83;;;7.50;58.60;;;7.35;51.75;98057.97;5080337;28;20453;-70
2023/03/02 10:15:11;;;;;;;29.42;16.75;;;7.60;58.30;;;7.44;51.83;98061.34;5075647;28;20448;-67
2023/03/02 10:17:53;;;;;;;21.80;15.57;;;7.70;58.40;;;7.60;51.47;98055.69;5068424;28;20240;-68
2023/03/02 10:20:28;;;;;;;24.67;17.20;;;7.80;58.20;;;7.56;51.23;98038.28;5093371;28;20587;-67
2023/03/02 10:23:09;;;;;;;26.70;17.43;;;7.90;57.80;;;7.71;51.28;98053.50;5081682;28;20511;-69
2023/03/02 10:25:48;;;;;;;22.60;15.43;;;8.00;57.90;;;7.76;50.77;98038.44;5077164;28;20458;-70
2023/03/02 10:28:20;;;;;;;27.50;16.60;;;8.10;57.30;;;7.98;50.63;98048.28;5066913;28;20449;-68
2023/03/02 10:30:55;;;;;;;21.10;15.40;;;8.20;57.50;;;8.10;50.22;98044.00;5065662;28;20480;-70